sensor_id;sensor_type;location;lat;lon;timestamp;P1;durP1;ratioP1;P2;durP2;ratioP2
65665;SDS011;52365;47.464;18.976;2023-05-20T00:00:07;7.70;;;4.70;;
65665;SDS011;52365;47.464;18.976;2023-05-20T00:00:29;8.75;;;4.90;;
65665;SDS011;52365;47.464;18.976;2023-05-20T00:00:51;5.62;;;4.45;;
65665;SDS011;52365;47.464;18.976;2023-05-20T00:01:12;6.57;;;4.12;;
65665;SDS011;52365;47.464;18.976;2023-05-20T00:01:33;8.15;;;4.47;;
65665;SDS011;52365;47.464;18.976;2023-05-20T00:01:54;7.70;;;4.57;;
65665;SDS011;52365;47.464;18.976;2023-05-20T00:02:10;7.75;;;4.80;;
65665;SDS011;52365;47.464;18.976;2023-05-20T00:02:32;6.47;;;4.60;;
65665;SDS011;52365;47.464;18.976;2023-05-20T00:02:53;6.05;;;4.20;;
65665;SDS011;52365;47.464;18.976;2023-05-20T00:03:09;5.93;;;4.60;;
65665;SDS011;52365;47.464;18.976;2023-05-20T00:03:30;5.45;;;4.55;;
65665;SDS011;52365;47.464;18.976;2023-05-20T00:03:46;5.15;;;4.50;;
65665;SDS011;52365;47.464;18.976;2023-05-20T00:04:07;5.60;;;4.87;;
65665;SDS011;52365;47.464;18.976;2023-05-20T00:04:23;6.20;;;4.80;;
65665;SDS011;52365;47.464;18.976;2023-05-20T00:04:44;7.25;;;5.00;;
65665;SDS011;52365;47.464;18.976;2023-05-20T00:05:00;6.97;;;4.90;;
65665;SDS011;52365;47.464;18.976;2023-05-20T00:05:21;6.55;;;4.87;;
65665;SDS011;52365;47.464;18.976;2023-05-20T00:05:37;6.65;;;4.95;;
65665;SDS011;52365;47.464;18.976;2023-05-20T00:05:58;7.25;;;4.90;;
65665;SDS011;52365;47.464;18.976;2023-05-20T00:06:19;5.95;;;4.68;;
65665;SDS011;52365;47.464;18.976;2023-05-20T00:06:40;6.87;;;5.22;;
65665;SDS011;52365;47.464;18.976;2023-05-20T00:07:01;6.70;;;5.00;;
65665;SDS011;52365;47.464;18.976;2023-05-20T00:07:23;6.15;;;5.15;;
65665;SDS011;52365;47.464;18.976;2023-05-20T00:07:44;6.65;;;5.20;;
65665;SDS011;52365;47.464;18.976;2023-05-20T00:08:05;7.00;;;5.20;;
65665;SDS011;52365;47.464;18.976;2023-05-20T00:08:23;8.30;;;5.10;;
65665;SDS011;52365;47.464;18.976;2023-05-20T00:08:44;6.85;;;5.32;;
65665;SDS011;52365;47.464;18.976;2023-05-20T00:09:05;7.82;;;5.60;;
65665;SDS011;52365;47.464;18.976;2023-05-20T00:09:26;9.10;;;5.57;;
65665;SDS011;52365;47.464;18.976;2023-05-20T00:09:49;8.65;;;5.05;;
65665;SDS011;52365;47.464;18.976;2023-05-20T00:10:10;8.25;;;5.43;;
65665;SDS011;52365;47.464;18.976;2023-05-20T00:10:31;7.25;;;5.47;;
65665;SDS011;52365;47.464;18.976;2023-05-20T00:10:47;6.20;;;5.15;;
65665;SDS011;52365;47.464;18.976;2023-05-20T00:11:08;7.60;;;5.15;;
65665;SDS011;52365;47.464;18.976;2023-05-20T00:11:29;8.88;;;5.47;;
65665;SDS011;52365;47.464;18.976;2023-05-20T00:11:50;9.18;;;5.70;;
65665;SDS011;52365;47.464;18.976;2023-05-20T00:12:11;8.35;;;5.78;;
65665;SDS011;52365;47.464;18.976;2023-05-20T00:12:32;7.82;;;5.50;;
65665;SDS011;52365;47.464;18.976;2023-05-20T00:12:54;8.18;;;5.47;;
65665;SDS011;52365;47.464;18.976;2023-05-20T00:13:15;7.40;;;5.30;;
65665;SDS011;52365;47.464;18.976;2023-05-20T00:13:37;9.02;;;5.28;;
65665;SDS011;52365;47.464;18.976;2023-05-20T00:13:58;7.68;;;5.37;;
65665;SDS011;52365;47.464;18.976;2023-05-20T00:14:14;6.60;;;5.35;;
65665;SDS011;52365;47.464;18.976;2023-05-20T00:14:35;7.30;;;5.30;;
65665;SDS011;52365;47.464;18.976;2023-05-20T00:14:56;8.15;;;5.68;;
65665;SDS011;52365;47.464;18.976;2023-05-20T00:15:17;6.93;;;5.47;;
65665;SDS011;52365;47.464;18.976;2023-05-20T00:15:38;8.75;;;5.37;;
65665;SDS011;52365;47.464;18.976;2023-05-20T00:15:59;10.98;;;5.65;;
65665;SDS011;52365;47.464;18.976;2023-05-20T00:16:16;8.85;;;5.53;;
65665;SDS011;52365;47.464;18.976;2023-05-20T00:16:32;8.55;;;5.68;;
65665;SDS011;52365;47.464;18.976;2023-05-20T00:16:53;6.78;;;5.28;;
65665;SDS011;52365;47.464;18.976;2023-05-20T00:17:13;7.43;;;5.45;;
65665;SDS011;52365;47.464;18.976;2023-05-20T00:17:34;7.32;;;5.47;;
65665;SDS011;52365;47.464;18.976;2023-05-20T00:17:50;7.30;;;5.50;;
65665;SDS011;52365;47.464;18.976;2023-05-20T00:18:12;6.82;;;5.53;;
65665;SDS011;52365;47.464;18.976;2023-05-20T00:18:28;6.10;;;5.18;;
65665;SDS011;52365;47.464;18.976;2023-05-20T00:18:48;6.25;;;5.50;;
65665;SDS011;52365;47.464;18.976;2023-05-20T00:19:10;8.05;;;5.50;;
65665;SDS011;52365;47.464;18.976;2023-05-20T00:19:31;8.68;;;5.68;;
65665;SDS011;52365;47.464;18.976;2023-05-20T00:19:52;7.55;;;5.60;;
65665;SDS011;52365;47.464;18.976;2023-05-20T00:20:13;7.87;;;5.75;;
65665;SDS011;52365;47.464;18.976;2023-05-20T00:20:34;9.05;;;5.80;;
65665;SDS011;52365;47.464;18.976;2023-05-20T00:20:55;9.27;;;5.68;;
65665;SDS011;52365;47.464;18.976;2023-05-20T00:21:16;7.62;;;5.75;;
65665;SDS011;52365;47.464;18.976;2023-05-20T00:21:37;10.27;;;5.80;;
65665;SDS011;52365;47.464;18.976;2023-05-20T00:21:53;8.63;;;5.80;;
65665;SDS011;52365;47.464;18.976;2023-05-20T00:22:17;9.90;;;5.80;;
65665;SDS011;52365;47.464;18.976;2023-05-20T00:22:38;11.52;;;6.18;;
65665;SDS011;52365;47.464;18.976;2023-05-20T00:22:58;9.88;;;6.20;;
65665;SDS011;52365;47.464;18.976;2023-05-20T00:23:20;8.32;;;5.80;;
65665;SDS011;52365;47.464;18.976;2023-05-20T00:23:41;8.00;;;5.55;;
65665;SDS011;52365;47.464;18.976;2023-05-20T00:24:02;7.15;;;5.57;;
65665;SDS011;52365;47.464;18.976;2023-05-20T00:24:23;8.00;;;6.00;;
65665;SDS011;52365;47.464;18.976;2023-05-20T00:24:44;7.12;;;5.60;;
65665;SDS011;52365;47.464;18.976;2023-05-20T00:25:05;7.78;;;5.45;;
65665;SDS011;52365;47.464;18.976;2023-05-20T00:25:27;8.73;;;5.90;;
65665;SDS011;52365;47.464;18.976;2023-05-20T00:25:43;9.10;;;6.25;;
65665;SDS011;52365;47.464;18.976;2023-05-20T00:26:03;9.63;;;6.05;;
65665;SDS011;52365;47.464;18.976;2023-05-20T00:26:25;10.38;;;5.62;;
65665;SDS011;52365;47.464;18.976;2023-05-20T00:26:46;11.70;;;6.03;;
65665;SDS011;52365;47.464;18.976;2023-05-20T00:27:07;9.98;;;5.90;;
65665;SDS011;52365;47.464;18.976;2023-05-20T00:27:28;8.25;;;5.65;;
65665;SDS011;52365;47.464;18.976;2023-05-20T00:27:49;8.38;;;5.97;;
65665;SDS011;52365;47.464;18.976;2023-05-20T00:28:10;9.45;;;5.90;;
65665;SDS011;52365;47.464;18.976;2023-05-20T00:28:31;10.65;;;6.10;;
65665;SDS011;52365;47.464;18.976;2023-05-20T00:28:52;9.70;;;5.82;;
65665;SDS011;52365;47.464;18.976;2023-05-20T00:29:13;7.72;;;5.85;;
65665;SDS011;52365;47.464;18.976;2023-05-20T00:29:34;9.10;;;5.97;;
65665;SDS011;52365;47.464;18.976;2023-05-20T00:29:55;8.57;;;5.72;;
65665;SDS011;52365;47.464;18.976;2023-05-20T00:30:11;8.65;;;5.90;;
65665;SDS011;52365;47.464;18.976;2023-05-20T00:30:32;8.55;;;5.60;;
65665;SDS011;52365;47.464;18.976;2023-05-20T00:30:53;10.00;;;6.03;;
65665;SDS011;52365;47.464;18.976;2023-05-20T00:31:14;8.80;;;6.00;;
65665;SDS011;52365;47.464;18.976;2023-05-20T00:31:35;9.27;;;6.12;;
65665;SDS011;52365;47.464;18.976;2023-05-20T00:31:56;8.93;;;6.00;;
65665;SDS011;52365;47.464;18.976;2023-05-20T00:32:17;8.32;;;5.90;;
65665;SDS011;52365;47.464;18.976;2023-05-20T00:32:38;7.28;;;5.50;;
65665;SDS011;52365;47.464;18.976;2023-05-20T00:33:00;7.47;;;5.90;;
65665;SDS011;52365;47.464;18.976;2023-05-20T00:33:21;8.40;;;5.97;;
65665;SDS011;52365;47.464;18.976;2023-05-20T00:33:42;8.50;;;5.78;;
65665;SDS011;52365;47.464;18.976;2023-05-20T00:34:03;7.82;;;5.50;;
65665;SDS011;52365;47.464;18.976;2023-05-20T00:34:24;9.07;;;5.70;;
65665;SDS011;52365;47.464;18.976;2023-05-20T00:34:41;9.07;;;5.97;;
65665;SDS011;52365;47.464;18.976;2023-05-20T00:35:03;8.68;;;6.18;;
65665;SDS011;52365;47.464;18.976;2023-05-20T00:35:24;8.18;;;5.90;;
65665;SDS011;52365;47.464;18.976;2023-05-20T00:35:45;9.07;;;5.80;;
65665;SDS011;52365;47.464;18.976;2023-05-20T00:36:06;7.00;;;5.57;;
65665;SDS011;52365;47.464;18.976;2023-05-20T00:36:27;10.25;;;6.00;;
65665;SDS011;52365;47.464;18.976;2023-05-20T00:36:48;10.27;;;5.78;;
65665;SDS011;52365;47.464;18.976;2023-05-20T00:37:09;8.02;;;5.60;;
65665;SDS011;52365;47.464;18.976;2023-05-20T00:37:30;7.85;;;5.50;;
65665;SDS011;52365;47.464;18.976;2023-05-20T00:37:51;9.70;;;5.45;;
65665;SDS011;52365;47.464;18.976;2023-05-20T00:38:12;10.43;;;5.78;;
65665;SDS011;52365;47.464;18.976;2023-05-20T00:38:34;7.82;;;5.68;;
65665;SDS011;52365;47.464;18.976;2023-05-20T00:38:55;8.45;;;5.40;;
65665;SDS011;52365;47.464;18.976;2023-05-20T00:39:16;8.25;;;5.50;;
65665;SDS011;52365;47.464;18.976;2023-05-20T00:39:37;8.18;;;5.57;;
65665;SDS011;52365;47.464;18.976;2023-05-20T00:39:58;8.52;;;5.68;;
65665;SDS011;52365;47.464;18.976;2023-05-20T00:40:19;7.57;;;5.50;;
65665;SDS011;52365;47.464;18.976;2023-05-20T00:40:41;7.20;;;5.35;;
65665;SDS011;52365;47.464;18.976;2023-05-20T00:41:02;7.90;;;5.50;;
65665;SDS011;52365;47.464;18.976;2023-05-20T00:41:23;7.93;;;5.28;;
65665;SDS011;52365;47.464;18.976;2023-05-20T00:41:44;7.53;;;5.53;;
65665;SDS011;52365;47.464;18.976;2023-05-20T00:42:05;7.15;;;5.53;;
65665;SDS011;52365;47.464;18.976;2023-05-20T00:42:27;7.10;;;5.30;;
65665;SDS011;52365;47.464;18.976;2023-05-20T00:42:48;6.12;;;5.30;;
65665;SDS011;52365;47.464;18.976;2023-05-20T00:43:09;7.87;;;5.45;;
65665;SDS011;52365;47.464;18.976;2023-05-20T00:43:31;7.90;;;5.07;;
65665;SDS011;52365;47.464;18.976;2023-05-20T00:43:52;7.40;;;4.93;;
65665;SDS011;52365;47.464;18.976;2023-05-20T00:44:14;9.63;;;5.32;;
65665;SDS011;52365;47.464;18.976;2023-05-20T00:44:35;9.75;;;5.37;;
65665;SDS011;52365;47.464;18.976;2023-05-20T00:44:56;8.07;;;5.32;;
65665;SDS011;52365;47.464;18.976;2023-05-20T00:45:12;7.15;;;5.30;;
65665;SDS011;52365;47.464;18.976;2023-05-20T00:45:33;7.53;;;5.30;;
65665;SDS011;52365;47.464;18.976;2023-05-20T00:45:54;7.07;;;5.25;;
65665;SDS011;52365;47.464;18.976;2023-05-20T00:46:10;6.87;;;5.30;;
65665;SDS011;52365;47.464;18.976;2023-05-20T00:46:32;9.38;;;5.62;;
65665;SDS011;52365;47.464;18.976;2023-05-20T00:46:54;12.30;;;5.65;;
65665;SDS011;52365;47.464;18.976;2023-05-20T00:47:16;8.95;;;5.57;;
65665;SDS011;52365;47.464;18.976;2023-05-20T00:47:38;10.25;;;5.60;;
65665;SDS011;52365;47.464;18.976;2023-05-20T00:47:59;6.60;;;5.50;;
65665;SDS011;52365;47.464;18.976;2023-05-20T00:48:23;7.30;;;5.55;;
65665;SDS011;52365;47.464;18.976;2023-05-20T00:48:44;7.12;;;5.50;;
65665;SDS011;52365;47.464;18.976;2023-05-20T00:49:05;8.18;;;5.70;;
65665;SDS011;52365;47.464;18.976;2023-05-20T00:49:26;7.62;;;5.47;;
65665;SDS011;52365;47.464;18.976;2023-05-20T00:49:48;7.95;;;5.60;;
65665;SDS011;52365;47.464;18.976;2023-05-20T00:50:10;10.23;;;5.55;;
65665;SDS011;52365;47.464;18.976;2023-05-20T00:50:31;8.88;;;5.55;;
65665;SDS011;52365;47.464;18.976;2023-05-20T00:50:48;7.30;;;5.60;;
65665;SDS011;52365;47.464;18.976;2023-05-20T00:51:10;8.25;;;5.57;;
65665;SDS011;52365;47.464;18.976;2023-05-20T00:51:32;7.45;;;5.30;;
65665;SDS011;52365;47.464;18.976;2023-05-20T00:51:54;6.53;;;5.22;;
65665;SDS011;52365;47.464;18.976;2023-05-20T00:52:16;8.00;;;5.70;;
65665;SDS011;52365;47.464;18.976;2023-05-20T00:52:38;8.95;;;5.72;;
65665;SDS011;52365;47.464;18.976;2023-05-20T00:53:01;9.50;;;5.62;;
65665;SDS011;52365;47.464;18.976;2023-05-20T00:53:22;7.78;;;5.75;;
65665;SDS011;52365;47.464;18.976;2023-05-20T00:53:44;7.65;;;5.18;;
65665;SDS011;52365;47.464;18.976;2023-05-20T00:54:00;7.75;;;5.12;;
65665;SDS011;52365;47.464;18.976;2023-05-20T00:54:17;6.70;;;5.10;;
65665;SDS011;52365;47.464;18.976;2023-05-20T00:54:39;7.60;;;5.60;;
65665;SDS011;52365;47.464;18.976;2023-05-20T00:55:01;8.73;;;5.60;;
65665;SDS011;52365;47.464;18.976;2023-05-20T00:55:22;9.65;;;5.70;;
65665;SDS011;52365;47.464;18.976;2023-05-20T00:55:44;10.35;;;5.95;;
65665;SDS011;52365;47.464;18.976;2023-05-20T00:56:05;7.87;;;5.70;;
65665;SDS011;52365;47.464;18.976;2023-05-20T00:56:27;8.13;;;6.18;;
65665;SDS011;52365;47.464;18.976;2023-05-20T00:56:49;7.25;;;5.70;;
65665;SDS011;52365;47.464;18.976;2023-05-20T00:57:11;7.03;;;5.50;;
65665;SDS011;52365;47.464;18.976;2023-05-20T00:57:33;6.78;;;5.62;;
65665;SDS011;52365;47.464;18.976;2023-05-20T00:57:49;7.07;;;5.60;;
65665;SDS011;52365;47.464;18.976;2023-05-20T00:58:10;7.68;;;5.68;;
65665;SDS011;52365;47.464;18.976;2023-05-20T00:58:32;7.82;;;5.70;;
65665;SDS011;52365;47.464;18.976;2023-05-20T00:58:53;8.35;;;6.07;;
65665;SDS011;52365;47.464;18.976;2023-05-20T00:59:15;9.23;;;5.93;;
65665;SDS011;52365;47.464;18.976;2023-05-20T00:59:36;8.60;;;5.93;;
65665;SDS011;52365;47.464;18.976;2023-05-20T00:59:58;8.25;;;5.95;;
65665;SDS011;52365;47.464;18.976;2023-05-20T01:00:19;9.77;;;5.82;;
65665;SDS011;52365;47.464;18.976;2023-05-20T01:00:40;8.38;;;5.70;;
65665;SDS011;52365;47.464;18.976;2023-05-20T01:01:02;7.68;;;5.50;;
65665;SDS011;52365;47.464;18.976;2023-05-20T01:01:24;7.45;;;5.90;;
65665;SDS011;52365;47.464;18.976;2023-05-20T01:01:45;7.87;;;6.00;;
65665;SDS011;52365;47.464;18.976;2023-05-20T01:02:06;7.30;;;5.82;;
65665;SDS011;52365;47.464;18.976;2023-05-20T01:02:22;7.03;;;5.60;;
65665;SDS011;52365;47.464;18.976;2023-05-20T01:02:44;8.23;;;5.65;;
65665;SDS011;52365;47.464;18.976;2023-05-20T01:03:05;8.13;;;5.78;;
65665;SDS011;52365;47.464;18.976;2023-05-20T01:03:21;9.63;;;5.80;;
65665;SDS011;52365;47.464;18.976;2023-05-20T01:03:42;10.20;;;5.80;;
65665;SDS011;52365;47.464;18.976;2023-05-20T01:04:03;7.95;;;5.62;;
65665;SDS011;52365;47.464;18.976;2023-05-20T01:04:24;9.60;;;5.93;;
65665;SDS011;52365;47.464;18.976;2023-05-20T01:04:45;8.98;;;5.80;;
65665;SDS011;52365;47.464;18.976;2023-05-20T01:05:06;9.70;;;5.62;;
65665;SDS011;52365;47.464;18.976;2023-05-20T01:05:28;7.28;;;5.43;;
65665;SDS011;52365;47.464;18.976;2023-05-20T01:05:49;9.25;;;5.47;;
65665;SDS011;52365;47.464;18.976;2023-05-20T01:06:10;7.72;;;5.37;;
65665;SDS011;52365;47.464;18.976;2023-05-20T01:06:31;7.97;;;5.90;;
65665;SDS011;52365;47.464;18.976;2023-05-20T01:06:53;8.35;;;5.95;;
65665;SDS011;52365;47.464;18.976;2023-05-20T01:07:15;9.70;;;5.78;;
65665;SDS011;52365;47.464;18.976;2023-05-20T01:07:37;6.87;;;5.55;;
65665;SDS011;52365;47.464;18.976;2023-05-20T01:07:58;8.23;;;5.90;;
65665;SDS011;52365;47.464;18.976;2023-05-20T01:08:22;7.78;;;5.78;;
65665;SDS011;52365;47.464;18.976;2023-05-20T01:08:44;7.60;;;5.60;;
65665;SDS011;52365;47.464;18.976;2023-05-20T01:09:05;7.10;;;5.62;;
65665;SDS011;52365;47.464;18.976;2023-05-20T01:09:27;8.70;;;5.70;;
65665;SDS011;52365;47.464;18.976;2023-05-20T01:09:50;8.27;;;5.62;;
65665;SDS011;52365;47.464;18.976;2023-05-20T01:10:13;8.90;;;5.93;;
65665;SDS011;52365;47.464;18.976;2023-05-20T01:10:34;7.93;;;5.75;;
65665;SDS011;52365;47.464;18.976;2023-05-20T01:11:15;10.40;;;5.70;;
65665;SDS011;52365;47.464;18.976;2023-05-20T01:11:43;7.93;;;5.50;;
65665;SDS011;52365;47.464;18.976;2023-05-20T01:12:17;8.85;;;5.70;;
65665;SDS011;52365;47.464;18.976;2023-05-20T01:12:45;7.50;;;5.60;;
65665;SDS011;52365;47.464;18.976;2023-05-20T01:13:10;7.47;;;5.40;;
65665;SDS011;52365;47.464;18.976;2023-05-20T01:13:36;8.20;;;5.45;;
65665;SDS011;52365;47.464;18.976;2023-05-20T01:14:05;9.40;;;5.55;;
65665;SDS011;52365;47.464;18.976;2023-05-20T01:14:29;8.45;;;5.30;;
65665;SDS011;52365;47.464;18.976;2023-05-20T01:15:00;8.02;;;5.72;;
65665;SDS011;52365;47.464;18.976;2023-05-20T01:15:33;7.18;;;5.30;;
65665;SDS011;52365;47.464;18.976;2023-05-20T01:15:50;9.60;;;5.40;;
65665;SDS011;52365;47.464;18.976;2023-05-20T01:16:15;8.07;;;5.65;;
65665;SDS011;52365;47.464;18.976;2023-05-20T01:16:38;8.63;;;5.78;;
65665;SDS011;52365;47.464;18.976;2023-05-20T01:17:00;8.10;;;5.82;;
65665;SDS011;52365;47.464;18.976;2023-05-20T01:17:29;8.07;;;5.90;;
65665;SDS011;52365;47.464;18.976;2023-05-20T01:17:54;8.70;;;5.72;;
65665;SDS011;52365;47.464;18.976;2023-05-20T01:18:20;8.57;;;5.78;;
65665;SDS011;52365;47.464;18.976;2023-05-20T01:18:45;8.13;;;5.80;;
65665;SDS011;52365;47.464;18.976;2023-05-20T01:19:03;8.57;;;5.72;;
65665;SDS011;52365;47.464;18.976;2023-05-20T01:19:35;9.85;;;5.75;;
65665;SDS011;52365;47.464;18.976;2023-05-20T01:20:03;7.85;;;5.57;;
65665;SDS011;52365;47.464;18.976;2023-05-20T01:20:29;7.65;;;5.70;;
65665;SDS011;52365;47.464;18.976;2023-05-20T01:20:54;9.18;;;6.37;;
65665;SDS011;52365;47.464;18.976;2023-05-20T01:21:21;7.47;;;5.75;;
65665;SDS011;52365;47.464;18.976;2023-05-20T01:21:42;7.32;;;5.65;;
65665;SDS011;52365;47.464;18.976;2023-05-20T01:22:06;8.40;;;5.80;;
65665;SDS011;52365;47.464;18.976;2023-05-20T01:22:32;7.55;;;5.80;;
65665;SDS011;52365;47.464;18.976;2023-05-20T01:22:54;7.65;;;5.60;;
65665;SDS011;52365;47.464;18.976;2023-05-20T01:23:16;7.30;;;5.68;;
65665;SDS011;52365;47.464;18.976;2023-05-20T01:23:37;7.68;;;5.70;;
65665;SDS011;52365;47.464;18.976;2023-05-20T01:24:01;7.30;;;5.55;;
65665;SDS011;52365;47.464;18.976;2023-05-20T01:24:25;7.40;;;5.50;;
65665;SDS011;52365;47.464;18.976;2023-05-20T01:24:46;8.52;;;5.90;;
65665;SDS011;52365;47.464;18.976;2023-05-20T01:25:08;8.38;;;5.75;;
65665;SDS011;52365;47.464;18.976;2023-05-20T01:25:24;7.93;;;5.78;;
65665;SDS011;52365;47.464;18.976;2023-05-20T01:25:46;7.68;;;5.75;;
65665;SDS011;52365;47.464;18.976;2023-05-20T01:26:07;8.25;;;6.05;;
65665;SDS011;52365;47.464;18.976;2023-05-20T01:26:30;9.35;;;5.87;;
65665;SDS011;52365;47.464;18.976;2023-05-20T01:26:50;7.93;;;5.70;;
65665;SDS011;52365;47.464;18.976;2023-05-20T01:27:11;7.30;;;5.53;;
65665;SDS011;52365;47.464;18.976;2023-05-20T01:27:35;8.30;;;5.90;;
65665;SDS011;52365;47.464;18.976;2023-05-20T01:27:56;7.72;;;5.85;;
65665;SDS011;52365;47.464;18.976;2023-05-20T01:28:17;8.43;;;5.93;;
65665;SDS011;52365;47.464;18.976;2023-05-20T01:28:39;7.30;;;5.78;;
65665;SDS011;52365;47.464;18.976;2023-05-20T01:29:03;7.72;;;5.70;;
65665;SDS011;52365;47.464;18.976;2023-05-20T01:29:24;8.25;;;5.93;;
65665;SDS011;52365;47.464;18.976;2023-05-20T01:29:46;8.05;;;5.78;;
65665;SDS011;52365;47.464;18.976;2023-05-20T01:30:12;7.37;;;5.55;;
65665;SDS011;52365;47.464;18.976;2023-05-20T01:30:36;7.20;;;5.37;;
65665;SDS011;52365;47.464;18.976;2023-05-20T01:31:04;7.80;;;5.75;;
65665;SDS011;52365;47.464;18.976;2023-05-20T01:31:30;9.95;;;5.47;;
65665;SDS011;52365;47.464;18.976;2023-05-20T01:31:56;7.30;;;5.45;;
65665;SDS011;52365;47.464;18.976;2023-05-20T01:32:25;8.10;;;5.55;;
65665;SDS011;52365;47.464;18.976;2023-05-20T01:33:08;8.88;;;5.57;;
65665;SDS011;52365;47.464;18.976;2023-05-20T01:33:33;7.70;;;5.60;;
65665;SDS011;52365;47.464;18.976;2023-05-20T01:33:57;7.50;;;5.70;;
65665;SDS011;52365;47.464;18.976;2023-05-20T01:34:18;7.70;;;5.68;;
65665;SDS011;52365;47.464;18.976;2023-05-20T01:34:40;7.25;;;5.47;;
65665;SDS011;52365;47.464;18.976;2023-05-20T01:35:02;7.40;;;5.57;;
65665;SDS011;52365;47.464;18.976;2023-05-20T01:35:24;7.87;;;5.47;;
65665;SDS011;52365;47.464;18.976;2023-05-20T01:35:46;7.85;;;5.95;;
65665;SDS011;52365;47.464;18.976;2023-05-20T01:36:02;7.97;;;5.80;;
65665;SDS011;52365;47.464;18.976;2023-05-20T01:36:25;7.60;;;5.40;;
65665;SDS011;52365;47.464;18.976;2023-05-20T01:36:48;8.35;;;5.82;;
65665;SDS011;52365;47.464;18.976;2023-05-20T01:37:10;7.68;;;5.87;;
65665;SDS011;52365;47.464;18.976;2023-05-20T01:37:34;9.75;;;6.15;;
65665;SDS011;52365;47.464;18.976;2023-05-20T01:37:53;8.45;;;6.03;;
65665;SDS011;52365;47.464;18.976;2023-05-20T01:38:16;7.65;;;5.95;;
65665;SDS011;52365;47.464;18.976;2023-05-20T01:38:38;9.02;;;6.00;;
65665;SDS011;52365;47.464;18.976;2023-05-20T01:39:02;10.30;;;6.07;;
65665;SDS011;52365;47.464;18.976;2023-05-20T01:39:25;9.25;;;6.28;;
65665;SDS011;52365;47.464;18.976;2023-05-20T01:39:47;8.10;;;6.28;;
65665;SDS011;52365;47.464;18.976;2023-05-20T01:40:05;7.62;;;6.40;;
65665;SDS011;52365;47.464;18.976;2023-05-20T01:40:28;8.25;;;6.50;;
65665;SDS011;52365;47.464;18.976;2023-05-20T01:40:50;9.10;;;6.32;;
65665;SDS011;52365;47.464;18.976;2023-05-20T01:41:08;9.63;;;6.18;;
65665;SDS011;52365;47.464;18.976;2023-05-20T01:41:24;9.07;;;6.12;;
65665;SDS011;52365;47.464;18.976;2023-05-20T01:41:46;10.30;;;6.35;;
65665;SDS011;52365;47.464;18.976;2023-05-20T01:42:09;8.63;;;6.12;;
65665;SDS011;52365;47.464;18.976;2023-05-20T01:42:31;8.70;;;6.28;;
65665;SDS011;52365;47.464;18.976;2023-05-20T01:42:53;9.98;;;6.45;;
65665;SDS011;52365;47.464;18.976;2023-05-20T01:43:15;9.73;;;6.28;;
65665;SDS011;52365;47.464;18.976;2023-05-20T01:43:37;9.23;;;6.20;;
65665;SDS011;52365;47.464;18.976;2023-05-20T01:43:59;8.73;;;5.97;;
65665;SDS011;52365;47.464;18.976;2023-05-20T01:44:20;9.55;;;6.37;;
65665;SDS011;52365;47.464;18.976;2023-05-20T01:44:42;7.85;;;6.25;;
65665;SDS011;52365;47.464;18.976;2023-05-20T01:45:03;8.20;;;5.87;;
65665;SDS011;52365;47.464;18.976;2023-05-20T01:45:25;8.73;;;5.85;;
65665;SDS011;52365;47.464;18.976;2023-05-20T01:45:46;8.73;;;5.85;;
65665;SDS011;52365;47.464;18.976;2023-05-20T01:46:07;8.88;;;6.05;;
65665;SDS011;52365;47.464;18.976;2023-05-20T01:46:31;9.55;;;5.85;;
65665;SDS011;52365;47.464;18.976;2023-05-20T01:46:53;9.30;;;6.03;;
65665;SDS011;52365;47.464;18.976;2023-05-20T01:47:15;7.97;;;5.50;;
65665;SDS011;52365;47.464;18.976;2023-05-20T01:47:35;7.28;;;5.97;;
65665;SDS011;52365;47.464;18.976;2023-05-20T01:47:57;8.10;;;5.65;;
65665;SDS011;52365;47.464;18.976;2023-05-20T01:48:18;7.15;;;5.43;;
65665;SDS011;52365;47.464;18.976;2023-05-20T01:48:39;9.30;;;5.75;;
65665;SDS011;52365;47.464;18.976;2023-05-20T01:49:00;8.27;;;5.78;;
65665;SDS011;52365;47.464;18.976;2023-05-20T01:49:21;7.05;;;5.25;;
65665;SDS011;52365;47.464;18.976;2023-05-20T01:49:42;8.27;;;5.60;;
65665;SDS011;52365;47.464;18.976;2023-05-20T01:50:05;8.30;;;5.37;;
65665;SDS011;52365;47.464;18.976;2023-05-20T01:50:27;6.45;;;5.32;;
65665;SDS011;52365;47.464;18.976;2023-05-20T01:50:48;9.15;;;5.80;;
65665;SDS011;52365;47.464;18.976;2023-05-20T01:51:09;8.68;;;5.80;;
65665;SDS011;52365;47.464;18.976;2023-05-20T01:51:30;8.82;;;5.65;;
65665;SDS011;52365;47.464;18.976;2023-05-20T01:51:53;6.87;;;5.50;;
65665;SDS011;52365;47.464;18.976;2023-05-20T01:52:09;7.20;;;5.50;;
65665;SDS011;52365;47.464;18.976;2023-05-20T01:52:30;7.72;;;5.55;;
65665;SDS011;52365;47.464;18.976;2023-05-20T01:52:51;8.30;;;5.65;;
65665;SDS011;52365;47.464;18.976;2023-05-20T01:53:12;8.35;;;5.72;;
65665;SDS011;52365;47.464;18.976;2023-05-20T01:53:33;8.02;;;5.87;;
65665;SDS011;52365;47.464;18.976;2023-05-20T01:53:50;8.90;;;5.53;;
65665;SDS011;52365;47.464;18.976;2023-05-20T01:54:11;10.07;;;5.20;;
65665;SDS011;52365;47.464;18.976;2023-05-20T01:54:32;8.82;;;5.60;;
65665;SDS011;52365;47.464;18.976;2023-05-20T01:54:53;8.02;;;5.57;;
65665;SDS011;52365;47.464;18.976;2023-05-20T01:55:14;8.68;;;5.40;;
65665;SDS011;52365;47.464;18.976;2023-05-20T01:55:35;7.57;;;5.50;;
65665;SDS011;52365;47.464;18.976;2023-05-20T01:55:56;7.47;;;5.55;;
65665;SDS011;52365;47.464;18.976;2023-05-20T01:56:17;9.57;;;5.78;;
65665;SDS011;52365;47.464;18.976;2023-05-20T01:56:38;7.03;;;5.40;;
65665;SDS011;52365;47.464;18.976;2023-05-20T01:56:59;8.60;;;5.50;;
65665;SDS011;52365;47.464;18.976;2023-05-20T01:57:21;9.05;;;5.90;;
65665;SDS011;52365;47.464;18.976;2023-05-20T01:57:42;9.07;;;5.87;;
65665;SDS011;52365;47.464;18.976;2023-05-20T01:58:04;7.90;;;5.82;;
65665;SDS011;52365;47.464;18.976;2023-05-20T01:58:25;6.57;;;5.20;;
65665;SDS011;52365;47.464;18.976;2023-05-20T01:58:46;7.10;;;5.50;;
65665;SDS011;52365;47.464;18.976;2023-05-20T01:59:07;7.45;;;5.68;;
65665;SDS011;52365;47.464;18.976;2023-05-20T01:59:23;8.93;;;5.87;;
65665;SDS011;52365;47.464;18.976;2023-05-20T01:59:44;9.45;;;5.70;;
65665;SDS011;52365;47.464;18.976;2023-05-20T02:00:06;7.20;;;5.43;;
65665;SDS011;52365;47.464;18.976;2023-05-20T02:00:22;6.90;;;5.47;;
65665;SDS011;52365;47.464;18.976;2023-05-20T02:00:43;8.95;;;5.50;;
65665;SDS011;52365;47.464;18.976;2023-05-20T02:01:04;8.75;;;5.40;;
65665;SDS011;52365;47.464;18.976;2023-05-20T02:01:25;7.97;;;5.40;;
65665;SDS011;52365;47.464;18.976;2023-05-20T02:01:46;8.27;;;5.53;;
65665;SDS011;52365;47.464;18.976;2023-05-20T02:02:07;8.10;;;5.45;;
65665;SDS011;52365;47.464;18.976;2023-05-20T02:02:28;8.40;;;5.70;;
65665;SDS011;52365;47.464;18.976;2023-05-20T02:02:50;7.70;;;5.70;;
65665;SDS011;52365;47.464;18.976;2023-05-20T02:03:11;8.45;;;5.43;;
65665;SDS011;52365;47.464;18.976;2023-05-20T02:03:32;10.05;;;5.70;;
65665;SDS011;52365;47.464;18.976;2023-05-20T02:03:53;7.80;;;5.62;;
65665;SDS011;52365;47.464;18.976;2023-05-20T02:04:13;7.70;;;5.37;;
65665;SDS011;52365;47.464;18.976;2023-05-20T02:04:35;8.10;;;5.55;;
65665;SDS011;52365;47.464;18.976;2023-05-20T02:04:56;8.38;;;5.53;;
65665;SDS011;52365;47.464;18.976;2023-05-20T02:05:17;8.43;;;5.50;;
65665;SDS011;52365;47.464;18.976;2023-05-20T02:05:38;6.80;;;5.50;;
65665;SDS011;52365;47.464;18.976;2023-05-20T02:05:59;7.55;;;5.62;;
65665;SDS011;52365;47.464;18.976;2023-05-20T02:06:20;7.57;;;5.47;;
65665;SDS011;52365;47.464;18.976;2023-05-20T02:06:41;6.68;;;5.35;;
65665;SDS011;52365;47.464;18.976;2023-05-20T02:07:02;7.65;;;5.62;;
65665;SDS011;52365;47.464;18.976;2023-05-20T02:07:23;8.45;;;5.50;;